Time;durP1;ratioP1;P1;durP2;ratioP2;P2;SDS_P1;SDS_P2;PMS_P1;PMS_P2;Temp;Humidity;BMP_temperature;BMP_pressure;BME280_temperature;BME280_humidity;BME280_pressure;Samples;Min_cycle;Max_cycle;Signal;HPM_P1;HPM_P2
2022/02/11 00:05:24;;;;;;;10.73;2.70;;;3.90;99.90;;;;;;12612484;28;20055;-38
2022/02/11 00:11:35;;;;;;;13.13;4.00;;;3.90;99.90;;;;;;12612017;28;20392;-38
2022/02/11 00:17:37;;;;;;;15.07;6.22;;;3.90;99.90;;;;;;12613676;28;20047;-35
2022/02/11 00:23:39;;;;;;;17.55;8.02;;;3.90;99.90;;;;;;12611609;28;20504;-35
2022/02/11 00:36:15;;;;;;;19.52;8.70;;;4.00;99.90;;;;;;12547278;28;20124;-39
2022/02/11 01:07:32;;;;;;;19.15;8.80;;;4.00;99.90;;;;;;12618173;28;20060;-36
2022/02/11 01:13:34;;;;;;;22.95;8.98;;;3.90;99.90;;;;;;12616555;28;20521;-35
2022/02/11 01:19:47;;;;;;;15.63;7.35;;;3.90;99.90;;;;;;12618630;28;20060;-36
2022/02/11 01:32:41;;;;;;;17.55;7.32;;;3.90;99.90;;;;;;12616826;28;20139;-39
2022/02/11 01:51:47;;;;;;;26.30;10.68;;;3.70;99.90;;;;;;12581259;28;20065;-38
2022/02/11 02:17:33;;;;;;;13.07;7.20;;;3.10;99.90;;;;;;12596730;28;20597;-35
2022/02/11 03:01:33;;;;;;;23.80;15.65;;;2.90;99.90;;;;;;12614421;28;20340;-35
2022/02/11 04:55:26;;;;;;;28.13;16.77;;;3.30;99.90;;;;;;12616150;28;20323;-35
2022/02/11 05:01:28;;;;;;;25.30;16.25;;;3.30;99.90;;;;;;12616071;28;20052;-38
2022/02/11 05:07:30;;;;;;;26.00;16.50;;;3.30;99.90;;;;;;12619657;28;20052;-35
2022/02/11 05:13:32;;;;;;;28.70;18.42;;;3.30;99.90;;;;;;12619952;28;20051;-38
2022/02/11 05:19:34;;;;;;;29.55;17.00;;;3.30;99.90;;;;;;12618747;28;20052;-35
2022/02/11 05:25:37;;;;;;;23.80;14.80;;;3.20;99.90;;;;;;12617254;28;20143;-40
2022/02/11 05:31:41;;;;;;;22.30;12.48;;;3.20;99.90;;;;;;12619664;28;20098;-35
2022/02/11 05:37:43;;;;;;;22.45;13.18;;;3.10;99.90;;;;;;12618133;28;20180;-38
2022/02/11 05:43:45;;;;;;;20.85;13.25;;;3.10;99.90;;;;;;12620862;28;20411;-35
2022/02/11 05:49:48;;;;;;;23.80;14.23;;;3.10;99.90;;;;;;12616751;28;20469;-38
2022/02/11 05:55:50;;;;;;;23.23;14.68;;;3.00;99.90;;;;;;12614313;28;20127;-35
2022/02/11 06:01:52;;;;;;;19.30;13.30;;;3.00;99.90;;;;;;12593674;28;20070;-38
2022/02/11 06:07:54;;;;;;;19.50;13.43;;;3.00;99.90;;;;;;12618433;28;20047;-35
2022/02/11 06:13:57;;;;;;;20.52;12.10;;;3.10;99.90;;;;;;12616233;28;20907;-35
2022/02/11 06:20:03;;;;;;;17.10;10.35;;;3.10;99.90;;;;;;12614994;28;20082;-38
2022/02/11 06:26:05;;;;;;;18.98;10.20;;;3.10;99.90;;;;;;12616814;28;20484;-35
2022/02/11 06:32:08;;;;;;;15.43;8.68;;;3.20;99.90;;;;;;12612158;28;20052;-38
2022/02/11 06:38:10;;;;;;;14.68;7.63;;;3.20;99.90;;;;;;12616104;28;20054;-39
2022/02/11 06:44:12;;;;;;;12.20;5.32;;;3.30;99.90;;;;;;12612163;28;20634;-35
2022/02/11 06:50:16;;;;;;;10.68;5.00;;;3.50;99.90;;;;;;12596525;28;20135;-35
2022/02/11 06:56:18;;;;;;;9.13;4.30;;;3.50;99.90;;;;;;12610316;28;20101;-35
2022/02/11 07:02:20;;;;;;;11.25;5.13;;;3.60;99.90;;;;;;12612271;28;20051;-35
2022/02/11 07:08:24;;;;;;;9.23;3.92;;;3.50;99.90;;;;;;12616864;28;20048;-38
2022/02/11 07:14:26;;;;;;;8.70;4.30;;;3.60;99.90;;;;;;12608311;28;20394;-39
2022/02/11 07:20:28;;;;;;;11.30;3.97;;;3.60;99.90;;;;;;12615350;28;20139;-38
2022/02/11 07:26:31;;;;;;;8.90;4.25;;;3.50;99.90;;;;;;12615941;28;20126;-36
2022/02/11 07:32:33;;;;;;;11.25;3.60;;;3.50;99.90;;;;;;12606643;28;20167;-35
2022/02/11 07:38:35;;;;;;;13.60;3.20;;;3.60;99.90;;;;;;12618595;28;20120;-35
2022/02/11 07:44:37;;;;;;;9.02;2.88;;;3.50;99.90;;;;;;12621782;28;20052;-42
2022/02/11 07:50:42;;;;;;;8.68;2.50;;;3.70;99.90;;;;;;12620328;28;20044;-35
2022/02/11 07:56:44;;;;;;;9.35;2.47;;;3.70;99.90;;;;;;12618979;28;20066;-35
2022/02/11 08:02:45;;;;;;;10.75;2.13;;;3.70;99.90;;;;;;12622085;28;20442;-38
2022/02/11 08:08:48;;;;;;;9.60;1.52;;;3.80;99.90;;;;;;12610445;28;20044;-38
2022/02/11 08:14:51;;;;;;;15.95;1.90;;;3.80;99.90;;;;;;12619368;28;20086;-38
2022/02/11 08:20:58;;;;;;;8.35;1.30;;;3.80;99.90;;;;;;12600223;28;20410;-38
2022/02/11 08:27:00;;;;;;;14.43;1.90;;;3.80;99.90;;;;;;12599062;28;20139;-35
2022/02/11 08:33:02;;;;;;;8.48;1.60;;;3.80;99.90;;;;;;12620751;28;20044;-36
2022/02/11 08:39:04;;;;;;;11.15;1.75;;;3.80;99.90;;;;;;12616715;28;20105;-35
2022/02/11 08:45:07;;;;;;;8.60;1.55;;;3.80;99.90;;;;;;12619197;28;20056;-39
2022/02/11 08:51:09;;;;;;;5.90;1.30;;;3.80;99.90;;;;;;12616765;28;20044;-38
2022/02/11 08:57:11;;;;;;;9.30;1.35;;;3.90;99.90;;;;;;12619297;28;20047;-35
2022/02/11 09:03:15;;;;;;;9.63;1.63;;;3.70;99.90;;;;;;12616462;28;20051;-37
2022/02/11 09:09:17;;;;;;;7.80;1.35;;;3.70;99.90;;;;;;12615812;28;20571;-35
2022/02/11 09:15:19;;;;;;;6.60;1.50;;;3.70;99.90;;;;;;12619238;28;20103;-35
2022/02/11 09:21:21;;;;;;;6.95;1.35;;;3.70;99.90;;;;;;12612883;28;20659;-36
2022/02/11 09:27:23;;;;;;;8.80;1.15;;;3.80;99.90;;;;;;12610603;28;20143;-38
2022/02/11 09:33:25;;;;;;;8.82;1.17;;;3.80;99.90;;;;;;12613571;28;20504;-35
2022/02/11 09:39:28;;;;;;;6.93;1.10;;;3.90;99.90;;;;;;12607626;28;20124;-38
2022/02/11 09:45:30;;;;;;;4.72;1.00;;;4.00;99.90;;;;;;12608500;28;20058;-39
2022/02/11 09:51:33;;;;;;;8.75;1.45;;;4.00;99.90;;;;;;12614885;28;20055;-39
2022/02/11 09:57:43;;;;;;;4.35;1.27;;;4.00;99.90;;;;;;12609934;28;20162;-39
2022/02/11 10:04:05;;;;;;;7.10;1.42;;;4.10;99.90;;;;;;12585985;28;20047;-40
2022/02/11 10:10:08;;;;;;;6.40;1.38;;;4.20;99.90;;;;;;12594631;28;20056;-39
2022/02/11 10:16:12;;;;;;;8.55;1.83;;;4.10;99.90;;;;;;12606260;28;20048;-35
2022/02/11 10:22:21;;;;;;;5.97;1.00;;;4.20;99.90;;;;;;12611478;28;20072;-40
2022/02/11 10:28:29;;;;;;;7.60;1.05;;;4.20;99.90;;;;;;12610366;28;20054;-35
2022/02/11 10:34:31;;;;;;;6.15;0.85;;;4.20;99.90;;;;;;12602550;28;20146;-38
2022/02/11 10:40:36;;;;;;;3.38;0.65;;;4.10;99.90;;;;;;12613853;28;20071;-39
2022/02/11 10:46:44;;;;;;;4.35;0.93;;;4.10;99.90;;;;;;12616180;28;20121;-35
2022/02/11 10:52:51;;;;;;;5.55;1.02;;;4.10;99.90;;;;;;12614313;28;20047;-39
2022/02/11 10:58:56;;;;;;;2.40;0.63;;;4.10;99.90;;;;;;12614834;28;20048;-35
2022/02/11 11:04:58;;;;;;;6.63;1.00;;;4.00;99.90;;;;;;12593571;28;20174;-35
2022/02/11 11:11:04;;;;;;;6.80;1.00;;;4.00;99.90;;;;;;12609895;28;20055;-38
2022/02/11 11:17:05;;;;;;;8.40;1.20;;;4.10;99.90;;;;;;12591652;28;20040;-35
2022/02/11 11:23:26;;;;;;;7.78;1.17;;;4.10;99.90;;;;;;12614191;28;20390;-36
2022/02/11 11:29:29;;;;;;;6.47;1.15;;;4.10;99.90;;;;;;12614190;28;20052;-36
2022/02/11 11:35:36;;;;;;;6.65;2.25;;;4.00;99.90;;;;;;12613647;28;20136;-35
2022/02/11 11:41:40;;;;;;;3.30;1.00;;;4.10;99.90;;;;;;12614539;28;20055;-38
2022/02/11 11:47:43;;;;;;;7.50;0.82;;;4.10;99.90;;;;;;12604657;28;20744;-35
2022/02/11 11:53:46;;;;;;;3.78;1.13;;;4.10;99.90;;;;;;12612284;28;20618;-35
2022/02/11 11:59:50;;;;;;;5.60;1.25;;;4.10;99.90;;;;;;12594443;28;20086;-39
2022/02/11 12:05:56;;;;;;;3.55;0.90;;;4.20;99.90;;;;;;12587875;28;20082;-38
2022/02/11 12:12:07;;;;;;;6.35;1.45;;;4.20;99.90;;;;;;12589647;28;20154;-37
2022/02/11 12:18:09;;;;;;;4.00;1.05;;;4.20;99.90;;;;;;12573583;28;20074;-38
2022/02/11 12:30:32;;;;;;;5.15;0.93;;;4.10;99.90;;;;;;12620901;28;20048;-36
2022/02/11 12:36:39;;;;;;;2.58;0.52;;;4.00;99.90;;;;;;12621366;28;20620;-36
2022/02/11 12:42:43;;;;;;;3.90;1.30;;;4.00;99.90;;;;;;12621707;28;20117;-36
2022/02/11 12:48:46;;;;;;;3.80;0.73;;;4.00;99.90;;;;;;12621867;28;20166;-36
2022/02/11 12:55:00;;;;;;;2.47;0.82;;;4.00;99.90;;;;;;12621545;28;20500;-39
2022/02/11 13:01:03;;;;;;;3.60;1.17;;;3.90;99.90;;;;;;12621407;28;20483;-39
2022/02/11 13:07:05;;;;;;;2.08;0.52;;;3.80;99.90;;;;;;12621722;28;20055;-35
2022/02/11 13:13:15;;;;;;;3.03;0.80;;;3.90;99.90;;;;;;12620096;28;20048;-38
2022/02/11 13:19:17;;;;;;;4.22;1.30;;;3.80;99.90;;;;;;12588512;28;20044;-39
2022/02/11 13:25:20;;;;;;;9.10;1.77;;;3.90;99.90;;;;;;12618973;28;20073;-36
2022/02/11 13:31:23;;;;;;;6.85;1.90;;;3.90;99.90;;;;;;12614984;28;20139;-35
2022/02/11 13:37:39;;;;;;;7.03;2.07;;;3.90;99.90;;;;;;12595523;28;20139;-36
2022/02/11 13:44:04;;;;;;;6.13;1.50;;;3.90;99.90;;;;;;12596427;28;20058;-36
2022/02/11 13:50:26;;;;;;;8.90;1.75;;;3.90;99.90;;;;;;12597946;28;20097;-39
2022/02/11 13:56:34;;;;;;;7.32;1.55;;;3.80;99.90;;;;;;12612424;28;20108;-36
2022/02/11 14:02:41;;;;;;;10.02;1.52;;;4.00;99.90;;;;;;12614596;28;20147;-39
2022/02/11 14:08:45;;;;;;;10.45;1.80;;;4.20;99.90;;;;;;12611000;28;20902;-40
2022/02/11 14:15:05;;;;;;;7.28;1.50;;;4.30;99.90;;;;;;12612525;28;20097;-37
2022/02/11 14:21:15;;;;;;;14.05;1.90;;;4.30;99.90;;;;;;12612194;28;20048;-37
2022/02/11 14:27:17;;;;;;;12.73;1.80;;;4.20;99.90;;;;;;12614761;28;20048;-39
2022/02/11 14:33:20;;;;;;;17.58;2.70;;;4.20;99.90;;;;;;12605848;28;20377;-40
2022/02/11 14:39:23;;;;;;;13.13;2.53;;;4.10;99.90;;;;;;12612464;28;20048;-39
2022/02/11 14:45:25;;;;;;;9.48;2.15;;;4.20;99.90;;;;;;12613191;28;20505;-36
2022/02/11 14:51:27;;;;;;;16.77;2.20;;;4.20;99.90;;;;;;12611671;28;20058;-41
2022/02/11 14:57:29;;;;;;;11.32;1.98;;;4.30;99.90;;;;;;12610886;28;20073;-36
2022/02/11 15:03:34;;;;;;;11.70;2.33;;;4.20;99.90;;;;;;12612744;28;20068;-40
2022/02/11 15:09:36;;;;;;;10.98;1.98;;;4.20;99.90;;;;;;12612651;28;20060;-36
2022/02/11 15:15:40;;;;;;;13.05;1.50;;;4.30;99.90;;;;;;12612465;28;20048;-39
2022/02/11 15:21:46;;;;;;;17.20;1.67;;;4.30;99.90;;;;;;12610346;28;20051;-39
2022/02/11 15:27:48;;;;;;;6.50;1.30;;;4.20;99.90;;;;;;12585864;28;20083;-36
2022/02/11 15:33:51;;;;;;;8.18;1.92;;;3.30;99.90;;;;;;12613714;28;20059;-39
2022/02/11 15:39:53;;;;;;;12.93;1.95;;;2.80;99.90;;;;;;12613662;28;20071;-41
2022/02/11 15:46:05;;;;;;;16.38;2.78;;;2.60;99.90;;;;;;12611569;28;20090;-40
2022/02/11 15:52:08;;;;;;;16.55;1.90;;;2.70;99.90;;;;;;12613083;28;20454;-37
2022/02/11 15:58:10;;;;;;;13.57;2.28;;;3.00;99.90;;;;;;12609354;28;20577;-39
2022/02/11 16:04:12;;;;;;;14.18;1.92;;;3.00;99.90;;;;;;12622030;28;20108;-36
2022/02/11 16:10:14;;;;;;;12.57;2.10;;;3.10;99.90;;;;;;12623822;28;20052;-39
2022/02/11 16:16:18;;;;;;;32.72;5.00;;;3.10;99.90;;;;;;12627129;28;20044;-39
2022/02/11 16:22:25;;;;;;;8.88;2.38;;;3.00;99.90;;;;;;12624900;28;20051;-39
2022/02/11 16:28:29;;;;;;;8.63;1.63;;;3.00;99.90;;;;;;12620579;28;20056;-39
2022/02/11 16:34:31;;;;;;;13.55;2.25;;;2.90;99.90;;;;;;12620538;28;20499;-41
2022/02/11 16:40:33;;;;;;;15.07;2.10;;;2.80;99.90;;;;;;12612788;28;20052;-37
2022/02/11 16:46:35;;;;;;;14.57;2.35;;;2.70;99.90;;;;;;12617774;28;20066;-36
2022/02/11 16:52:38;;;;;;;9.80;1.83;;;2.80;99.90;;;;;;12613130;28;20162;-41
2022/02/11 16:58:40;;;;;;;10.77;2.22;;;2.80;99.90;;;;;;12616441;28;20046;-39
2022/02/11 17:04:42;;;;;;;12.18;2.33;;;2.80;99.90;;;;;;12612681;28;20052;-40
2022/02/11 17:10:46;;;;;;;12.90;2.40;;;2.80;99.90;;;;;;12609489;28;20131;-39
2022/02/11 17:16:48;;;;;;;9.20;2.47;;;2.90;99.90;;;;;;12617724;28;20367;-39
2022/02/11 17:22:50;;;;;;;10.38;2.58;;;2.90;99.90;;;;;;12616988;28;20079;-40
2022/02/11 17:28:52;;;;;;;24.60;5.78;;;2.80;99.90;;;;;;12616819;28;20059;-39
2022/02/11 17:34:54;;;;;;;9.90;2.75;;;2.90;99.90;;;;;;12615176;28;20112;-39
2022/02/11 17:40:56;;;;;;;17.10;2.78;;;3.00;99.90;;;;;;12612499;28;20055;-41
2022/02/11 17:46:58;;;;;;;12.10;2.20;;;2.90;99.90;;;;;;12594181;28;20167;-40
2022/02/11 17:53:00;;;;;;;14.15;2.28;;;2.90;99.90;;;;;;12607876;28;20549;-38
2022/02/11 17:59:02;;;;;;;8.85;2.30;;;3.00;99.90;;;;;;12603169;28;20071;-40
2022/02/11 18:05:05;;;;;;;11.30;2.33;;;3.00;99.90;;;;;;12612234;28;20048;-39
2022/02/11 18:11:08;;;;;;;13.95;2.60;;;3.10;99.90;;;;;;12615943;28;20480;-37
2022/02/11 18:17:10;;;;;;;14.07;2.63;;;3.20;99.90;;;;;;12615425;28;20143;-40
2022/02/11 18:23:12;;;;;;;13.40;3.42;;;3.10;99.90;;;;;;12612722;28;20126;-39
2022/02/11 18:29:15;;;;;;;15.15;3.28;;;2.90;99.90;;;;;;12607363;28;20496;-40
2022/02/11 18:35:17;;;;;;;17.73;2.90;;;2.90;99.90;;;;;;12606133;28;20138;-41
2022/02/11 18:41:25;;;;;;;16.67;3.00;;;2.80;99.90;;;;;;12607974;28;20117;-40
2022/02/11 18:47:27;;;;;;;16.58;4.80;;;2.70;99.90;;;;;;12611290;28;20079;-42
2022/02/11 18:53:29;;;;;;;12.85;4.85;;;2.50;99.90;;;;;;12614857;28;20090;-42
2022/02/11 19:05:53;;;;;;;21.42;3.97;;;2.30;99.90;;;;;;12612644;28;20704;-40
2022/02/11 19:11:55;;;;;;;15.27;4.75;;;2.20;99.90;;;;;;12614698;28;20044;-36
2022/02/11 19:17:57;;;;;;;14.43;3.80;;;2.10;99.90;;;;;;12614417;28;20044;-38
2022/02/11 19:23:59;;;;;;;18.33;4.53;;;2.10;99.90;;;;;;12614675;28;20048;-36
2022/02/11 19:30:02;;;;;;;14.48;3.65;;;1.90;99.90;;;;;;12615792;28;20511;-40
2022/02/11 19:36:05;;;;;;;14.05;3.20;;;1.70;99.90;;;;;;12624802;28;20056;-41
2022/02/11 19:42:08;;;;;;;11.40;3.00;;;1.60;99.90;;;;;;12625729;28;20048;-43
2022/02/11 19:48:10;;;;;;;14.63;3.50;;;1.50;99.90;;;;;;12623233;28;20044;-36
2022/02/11 19:54:12;;;;;;;14.85;4.00;;;1.30;99.90;;;;;;12623306;28;20074;-44
2022/02/11 20:00:16;;;;;;;10.10;2.58;;;1.20;99.90;;;;;;12621602;28;20040;-40
2022/02/11 20:06:19;;;;;;;11.23;2.65;;;1.10;99.90;;;;;;12623386;28;20100;-37
2022/02/11 20:12:21;;;;;;;13.10;3.13;;;1.00;99.90;;;;;;12620853;28;20669;-40
2022/02/11 20:18:23;;;;;;;13.85;3.65;;;1.10;99.90;;;;;;12623630;28;20059;-37
2022/02/11 20:24:25;;;;;;;14.32;3.58;;;1.10;99.90;;;;;;12619443;28;20081;-39
2022/02/11 20:30:28;;;;;;;21.33;3.05;;;0.90;99.90;;;;;;12620138;28;20040;-42
2022/02/11 20:36:35;;;;;;;18.13;3.00;;;0.80;99.90;;;;;;12622496;28;20502;-41
2022/02/11 20:42:37;;;;;;;17.00;3.72;;;0.70;99.90;;;;;;12599748;28;20056;-37
2022/02/11 20:48:39;;;;;;;16.95;2.75;;;0.70;99.90;;;;;;12619352;28;20051;-37
2022/02/11 20:54:41;;;;;;;10.73;2.80;;;0.50;99.90;;;;;;12616643;28;20130;-40
2022/02/11 21:00:44;;;;;;;8.70;2.38;;;0.60;99.90;;;;;;12619276;28;20070;-36
2022/02/11 21:13:07;;;;;;;13.40;2.65;;;0.80;99.90;;;;;;12618152;28;20131;-42
2022/02/11 21:19:09;;;;;;;14.40;2.40;;;0.80;99.90;;;;;;12620103;28;20054;-43
2022/02/11 21:25:13;;;;;;;13.57;2.72;;;0.90;99.90;;;;;;12619856;28;20036;-43
2022/02/11 21:31:15;;;;;;;16.00;2.78;;;0.90;99.90;;;;;;12620125;28;20048;-37
2022/02/11 21:37:18;;;;;;;10.55;3.30;;;1.00;99.90;;;;;;12618675;28;20186;-36
2022/02/11 21:43:20;;;;;;;12.03;3.63;;;0.90;99.90;;;;;;12616346;28;20112;-36
2022/02/11 21:49:22;;;;;;;17.55;3.60;;;0.80;99.90;;;;;;12620089;28;20109;-40
2022/02/11 21:55:24;;;;;;;16.38;3.72;;;0.70;99.90;;;;;;12614610;28;20055;-39
2022/02/11 22:01:26;;;;;;;12.55;3.67;;;0.60;99.90;;;;;;12615530;28;20051;-39
2022/02/11 22:07:28;;;;;;;14.50;3.05;;;0.50;99.90;;;;;;12612326;28;20051;-39
2022/02/11 22:13:30;;;;;;;12.40;2.75;;;0.70;99.90;;;;;;12613602;28;20494;-36
2022/02/11 22:19:52;;;;;;;13.30;2.22;;;0.60;99.90;;;;;;12616007;28;20064;-36
2022/02/11 22:25:54;;;;;;;14.98;3.40;;;0.60;99.90;;;;;;12610548;28;20062;-36
2022/02/11 22:31:57;;;;;;;17.80;2.53;;;0.60;99.90;;;;;;12613619;28;20693;-39
2022/02/11 22:38:01;;;;;;;13.82;2.85;;;0.80;99.90;;;;;;12592718;28;20091;-36
2022/02/11 22:44:04;;;;;;;16.30;2.60;;;0.90;99.90;;;;;;12615002;28;20048;-36
2022/02/11 22:56:28;;;;;;;17.40;2.78;;;0.90;99.90;;;;;;12611586;28;20096;-39
2022/02/11 23:02:30;;;;;;;12.20;3.08;;;0.80;99.90;;;;;;12608037;28;20059;-39
2022/02/11 23:14:57;;;;;;;8.43;2.55;;;0.80;99.90;;;;;;12610830;28;20035;-36
2022/02/11 23:20:59;;;;;;;10.57;3.17;;;0.70;99.90;;;;;;12609414;28;20971;-39
2022/02/11 23:27:04;;;;;;;17.10;3.05;;;0.70;99.90;;;;;;12611144;28;20039;-38
2022/02/11 23:33:08;;;;;;;21.60;4.72;;;0.60;99.90;;;;;;12609980;28;20428;-40
2022/02/11 23:39:10;;;;;;;19.65;3.17;;;0.50;99.90;;;;;;12614070;28;20078;-39
2022/02/11 23:45:13;;;;;;;18.10;2.60;;;0.20;99.90;;;;;;12611366;28;20048;-37
2022/02/11 23:51:15;;;;;;;13.45;3.08;;;0.10;99.90;;;;;;12610287;28;20308;-38
2022/02/11 23:57:17;;;;;;;14.43;4.28;;;0.20;99.90;;;;;;12609091;28;20079;-39
